sensor_id;sensor_type;location;lat;lon;timestamp;P1;durP1;ratioP1;P2;durP2;ratioP2
11054;SDS011;5580;50.106;8.702;2022-09-21T00:02:24;14.00;;;7.33;;
11054;SDS011;5580;50.106;8.702;2022-09-21T00:04:49;14.03;;;7.73;;
11054;SDS011;5580;50.106;8.702;2022-09-21T00:07:15;13.63;;;7.77;;
11054;SDS011;5580;50.106;8.702;2022-09-21T00:09:40;13.87;;;7.77;;
11054;SDS011;5580;50.106;8.702;2022-09-21T00:12:06;17.73;;;8.47;;
11054;SDS011;5580;50.106;8.702;2022-09-21T00:14:33;14.37;;;8.30;;
11054;SDS011;5580;50.106;8.702;2022-09-21T00:16:58;18.17;;;9.67;;
11054;SDS011;5580;50.106;8.702;2022-09-21T00:19:24;16.40;;;9.10;;
11054;SDS011;5580;50.106;8.702;2022-09-21T00:21:52;14.47;;;8.20;;
11054;SDS011;5580;50.106;8.702;2022-09-21T00:24:18;12.60;;;7.77;;
11054;SDS011;5580;50.106;8.702;2022-09-21T00:26:44;12.73;;;7.30;;
11054;SDS011;5580;50.106;8.702;2022-09-21T00:29:10;14.67;;;7.40;;
11054;SDS011;5580;50.106;8.702;2022-09-21T00:31:35;11.90;;;7.30;;
11054;SDS011;5580;50.106;8.702;2022-09-21T00:34:01;13.93;;;7.07;;
11054;SDS011;5580;50.106;8.702;2022-09-21T00:36:28;12.67;;;6.83;;
11054;SDS011;5580;50.106;8.702;2022-09-21T00:38:54;12.17;;;7.13;;
11054;SDS011;5580;50.106;8.702;2022-09-21T00:41:21;14.17;;;7.77;;
11054;SDS011;5580;50.106;8.702;2022-09-21T00:43:49;13.53;;;6.97;;
11054;SDS011;5580;50.106;8.702;2022-09-21T00:46:42;12.80;;;7.57;;
11054;SDS011;5580;50.106;8.702;2022-09-21T00:49:09;12.83;;;7.53;;
11054;SDS011;5580;50.106;8.702;2022-09-21T00:51:35;14.17;;;7.37;;
11054;SDS011;5580;50.106;8.702;2022-09-21T00:54:03;11.03;;;7.00;;
11054;SDS011;5580;50.106;8.702;2022-09-21T00:56:34;14.27;;;7.60;;
11054;SDS011;5580;50.106;8.702;2022-09-21T00:59:01;13.97;;;7.60;;
11054;SDS011;5580;50.106;8.702;2022-09-21T01:01:27;13.93;;;7.83;;
11054;SDS011;5580;50.106;8.702;2022-09-21T01:03:53;13.77;;;7.80;;
11054;SDS011;5580;50.106;8.702;2022-09-21T01:06:21;13.43;;;7.60;;
11054;SDS011;5580;50.106;8.702;2022-09-21T01:08:49;11.90;;;7.37;;
11054;SDS011;5580;50.106;8.702;2022-09-21T01:11:36;12.80;;;6.77;;
11054;SDS011;5580;50.106;8.702;2022-09-21T01:14:16;11.63;;;7.43;;
11054;SDS011;5580;50.106;8.702;2022-09-21T01:16:54;12.10;;;6.90;;
11054;SDS011;5580;50.106;8.702;2022-09-21T01:28:27;11.20;;;6.80;;
11054;SDS011;5580;50.106;8.702;2022-09-21T01:31:16;12.37;;;7.10;;
11054;SDS011;5580;50.106;8.702;2022-09-21T01:33:49;12.47;;;7.00;;
11054;SDS011;5580;50.106;8.702;2022-09-21T01:36:20;16.07;;;7.87;;
11054;SDS011;5580;50.106;8.702;2022-09-21T01:39:11;13.00;;;7.23;;
11054;SDS011;5580;50.106;8.702;2022-09-21T01:41:37;11.90;;;7.20;;
11054;SDS011;5580;50.106;8.702;2022-09-21T01:44:06;12.70;;;7.60;;
11054;SDS011;5580;50.106;8.702;2022-09-21T01:46:36;12.27;;;7.30;;
11054;SDS011;5580;50.106;8.702;2022-09-21T01:49:08;13.47;;;7.37;;
11054;SDS011;5580;50.106;8.702;2022-09-21T01:51:40;13.10;;;6.93;;
11054;SDS011;5580;50.106;8.702;2022-09-21T01:54:11;12.70;;;6.97;;
11054;SDS011;5580;50.106;8.702;2022-09-21T01:56:47;15.93;;;6.63;;
11054;SDS011;5580;50.106;8.702;2022-09-21T02:02:07;13.97;;;7.30;;
11054;SDS011;5580;50.106;8.702;2022-09-21T02:04:37;16.37;;;8.07;;
11054;SDS011;5580;50.106;8.702;2022-09-21T02:07:03;15.33;;;8.43;;
11054;SDS011;5580;50.106;8.702;2022-09-21T02:09:31;14.63;;;8.47;;
11054;SDS011;5580;50.106;8.702;2022-09-21T02:11:58;17.87;;;8.63;;
11054;SDS011;5580;50.106;8.702;2022-09-21T02:14:26;13.17;;;8.37;;
11054;SDS011;5580;50.106;8.702;2022-09-21T02:19:47;14.50;;;7.93;;
11054;SDS011;5580;50.106;8.702;2022-09-21T02:22:32;12.93;;;8.10;;
11054;SDS011;5580;50.106;8.702;2022-09-21T02:25:40;12.73;;;8.03;;
11054;SDS011;5580;50.106;8.702;2022-09-21T02:28:15;14.87;;;8.17;;
11054;SDS011;5580;50.106;8.702;2022-09-21T02:30:57;13.43;;;8.23;;
11054;SDS011;5580;50.106;8.702;2022-09-21T02:33:33;12.87;;;7.20;;
11054;SDS011;5580;50.106;8.702;2022-09-21T02:36:07;12.00;;;6.47;;
11054;SDS011;5580;50.106;8.702;2022-09-21T02:43:46;11.83;;;6.53;;
11054;SDS011;5580;50.106;8.702;2022-09-21T02:46:23;11.33;;;6.47;;
11054;SDS011;5580;50.106;8.702;2022-09-21T02:49:01;9.00;;;5.80;;
11054;SDS011;5580;50.106;8.702;2022-09-21T02:51:32;13.50;;;6.47;;
11054;SDS011;5580;50.106;8.702;2022-09-21T02:54:08;9.63;;;6.00;;
11054;SDS011;5580;50.106;8.702;2022-09-21T02:56:37;8.77;;;6.13;;
11054;SDS011;5580;50.106;8.702;2022-09-21T02:59:05;11.97;;;6.17;;
11054;SDS011;5580;50.106;8.702;2022-09-21T03:01:32;9.73;;;6.10;;
11054;SDS011;5580;50.106;8.702;2022-09-21T03:03:58;10.93;;;6.20;;
11054;SDS011;5580;50.106;8.702;2022-09-21T03:06:24;9.83;;;5.60;;
11054;SDS011;5580;50.106;8.702;2022-09-21T03:08:50;10.10;;;5.73;;
11054;SDS011;5580;50.106;8.702;2022-09-21T03:11:16;12.57;;;6.03;;
11054;SDS011;5580;50.106;8.702;2022-09-21T03:13:42;10.07;;;5.90;;
11054;SDS011;5580;50.106;8.702;2022-09-21T03:16:09;10.53;;;6.30;;
11054;SDS011;5580;50.106;8.702;2022-09-21T03:18:35;11.43;;;5.90;;
11054;SDS011;5580;50.106;8.702;2022-09-21T03:21:00;10.00;;;5.93;;
11054;SDS011;5580;50.106;8.702;2022-09-21T03:23:27;10.70;;;6.20;;
11054;SDS011;5580;50.106;8.702;2022-09-21T03:25:53;12.30;;;6.07;;
11054;SDS011;5580;50.106;8.702;2022-09-21T03:28:19;13.30;;;6.53;;
11054;SDS011;5580;50.106;8.702;2022-09-21T03:30:47;12.60;;;6.40;;
11054;SDS011;5580;50.106;8.702;2022-09-21T03:33:14;10.80;;;6.30;;
11054;SDS011;5580;50.106;8.702;2022-09-21T03:35:40;14.03;;;6.20;;
11054;SDS011;5580;50.106;8.702;2022-09-21T03:38:06;11.50;;;6.40;;
11054;SDS011;5580;50.106;8.702;2022-09-21T03:40:32;15.83;;;6.50;;
11054;SDS011;5580;50.106;8.702;2022-09-21T03:42:58;11.53;;;6.10;;
11054;SDS011;5580;50.106;8.702;2022-09-21T03:45:23;13.80;;;6.30;;
11054;SDS011;5580;50.106;8.702;2022-09-21T03:47:51;11.10;;;6.40;;
11054;SDS011;5580;50.106;8.702;2022-09-21T03:50:20;12.03;;;6.57;;
11054;SDS011;5580;50.106;8.702;2022-09-21T03:52:46;12.20;;;6.57;;
11054;SDS011;5580;50.106;8.702;2022-09-21T03:55:11;13.13;;;6.60;;
11054;SDS011;5580;50.106;8.702;2022-09-21T03:57:37;13.73;;;6.63;;
11054;SDS011;5580;50.106;8.702;2022-09-21T04:00:04;14.37;;;6.77;;
11054;SDS011;5580;50.106;8.702;2022-09-21T04:02:33;12.07;;;7.00;;
11054;SDS011;5580;50.106;8.702;2022-09-21T04:04:59;13.77;;;7.30;;
11054;SDS011;5580;50.106;8.702;2022-09-21T04:07:24;15.90;;;7.53;;
11054;SDS011;5580;50.106;8.702;2022-09-21T04:09:50;13.93;;;7.60;;
11054;SDS011;5580;50.106;8.702;2022-09-21T04:12:16;14.40;;;7.37;;
11054;SDS011;5580;50.106;8.702;2022-09-21T04:14:46;14.77;;;7.67;;
11054;SDS011;5580;50.106;8.702;2022-09-21T04:17:11;15.70;;;8.20;;
11054;SDS011;5580;50.106;8.702;2022-09-21T04:19:37;14.83;;;7.60;;
11054;SDS011;5580;50.106;8.702;2022-09-21T04:22:02;13.73;;;7.27;;
11054;SDS011;5580;50.106;8.702;2022-09-21T04:24:28;14.77;;;8.13;;
11054;SDS011;5580;50.106;8.702;2022-09-21T04:26:54;14.73;;;8.50;;
11054;SDS011;5580;50.106;8.702;2022-09-21T04:29:20;17.90;;;8.70;;
11054;SDS011;5580;50.106;8.702;2022-09-21T04:31:46;16.20;;;8.73;;
11054;SDS011;5580;50.106;8.702;2022-09-21T04:34:11;14.90;;;8.50;;
11054;SDS011;5580;50.106;8.702;2022-09-21T04:36:37;16.80;;;7.80;;
11054;SDS011;5580;50.106;8.702;2022-09-21T04:39:03;24.37;;;7.63;;
11054;SDS011;5580;50.106;8.702;2022-09-21T04:41:29;16.37;;;7.90;;
11054;SDS011;5580;50.106;8.702;2022-09-21T04:43:56;18.33;;;8.27;;
11054;SDS011;5580;50.106;8.702;2022-09-21T04:46:21;16.90;;;8.37;;
11054;SDS011;5580;50.106;8.702;2022-09-21T04:48:47;15.23;;;7.17;;
11054;SDS011;5580;50.106;8.702;2022-09-21T04:51:13;20.63;;;7.27;;
11054;SDS011;5580;50.106;8.702;2022-09-21T04:53:40;14.90;;;6.93;;
11054;SDS011;5580;50.106;8.702;2022-09-21T04:56:07;16.90;;;7.00;;
11054;SDS011;5580;50.106;8.702;2022-09-21T04:58:34;13.07;;;6.97;;
11054;SDS011;5580;50.106;8.702;2022-09-21T05:01:00;15.90;;;7.17;;
11054;SDS011;5580;50.106;8.702;2022-09-21T05:03:26;15.07;;;7.27;;
11054;SDS011;5580;50.106;8.702;2022-09-21T05:05:53;13.50;;;6.73;;
11054;SDS011;5580;50.106;8.702;2022-09-21T05:08:19;17.83;;;7.20;;
11054;SDS011;5580;50.106;8.702;2022-09-21T05:11:05;17.53;;;6.73;;
11054;SDS011;5580;50.106;8.702;2022-09-21T05:13:32;13.50;;;6.47;;
11054;SDS011;5580;50.106;8.702;2022-09-21T05:15:57;23.90;;;7.43;;
11054;SDS011;5580;50.106;8.702;2022-09-21T05:18:23;19.37;;;7.83;;
11054;SDS011;5580;50.106;8.702;2022-09-21T05:20:55;15.17;;;7.20;;
11054;SDS011;5580;50.106;8.702;2022-09-21T05:23:21;16.50;;;7.70;;
11054;SDS011;5580;50.106;8.702;2022-09-21T05:25:47;21.60;;;6.80;;
11054;SDS011;5580;50.106;8.702;2022-09-21T05:28:14;22.57;;;7.43;;
11054;SDS011;5580;50.106;8.702;2022-09-21T05:30:44;15.73;;;7.40;;
11054;SDS011;5580;50.106;8.702;2022-09-21T05:33:31;17.83;;;7.13;;
11054;SDS011;5580;50.106;8.702;2022-09-21T05:39:09;12.63;;;6.53;;
11054;SDS011;5580;50.106;8.702;2022-09-21T05:41:35;14.63;;;7.67;;
11054;SDS011;5580;50.106;8.702;2022-09-21T05:44:01;11.67;;;6.70;;
11054;SDS011;5580;50.106;8.702;2022-09-21T05:54:31;15.37;;;6.50;;
11054;SDS011;5580;50.106;8.702;2022-09-21T05:57:20;19.60;;;7.10;;
11054;SDS011;5580;50.106;8.702;2022-09-21T06:05:40;12.13;;;6.20;;
11054;SDS011;5580;50.106;8.702;2022-09-21T06:08:07;12.07;;;6.17;;
11054;SDS011;5580;50.106;8.702;2022-09-21T06:10:33;12.33;;;5.90;;
11054;SDS011;5580;50.106;8.702;2022-09-21T06:12:59;14.67;;;5.97;;
11054;SDS011;5580;50.106;8.702;2022-09-21T06:15:24;12.03;;;5.93;;
11054;SDS011;5580;50.106;8.702;2022-09-21T06:17:50;12.13;;;6.00;;
11054;SDS011;5580;50.106;8.702;2022-09-21T06:20:16;16.23;;;7.23;;
11054;SDS011;5580;50.106;8.702;2022-09-21T06:22:41;20.83;;;7.63;;
11054;SDS011;5580;50.106;8.702;2022-09-21T06:25:07;14.93;;;7.53;;
11054;SDS011;5580;50.106;8.702;2022-09-21T06:27:33;22.07;;;8.17;;
11054;SDS011;5580;50.106;8.702;2022-09-21T06:29:59;16.40;;;8.07;;
11054;SDS011;5580;50.106;8.702;2022-09-21T06:32:24;18.47;;;8.53;;
11054;SDS011;5580;50.106;8.702;2022-09-21T06:34:50;18.60;;;8.43;;
11054;SDS011;5580;50.106;8.702;2022-09-21T06:37:15;24.40;;;9.07;;
11054;SDS011;5580;50.106;8.702;2022-09-21T06:39:41;15.90;;;7.97;;
11054;SDS011;5580;50.106;8.702;2022-09-21T06:42:06;15.70;;;8.10;;
11054;SDS011;5580;50.106;8.702;2022-09-21T06:44:32;14.27;;;7.70;;
11054;SDS011;5580;50.106;8.702;2022-09-21T06:46:57;20.47;;;8.90;;
11054;SDS011;5580;50.106;8.702;2022-09-21T06:49:23;18.20;;;8.80;;
11054;SDS011;5580;50.106;8.702;2022-09-21T06:51:51;14.67;;;8.77;;
11054;SDS011;5580;50.106;8.702;2022-09-21T06:54:16;15.97;;;7.93;;
11054;SDS011;5580;50.106;8.702;2022-09-21T06:56:42;16.83;;;8.90;;
11054;SDS011;5580;50.106;8.702;2022-09-21T06:59:08;24.13;;;8.60;;
11054;SDS011;5580;50.106;8.702;2022-09-21T07:01:33;18.17;;;8.50;;
11054;SDS011;5580;50.106;8.702;2022-09-21T07:03:59;20.00;;;8.03;;
11054;SDS011;5580;50.106;8.702;2022-09-21T07:06:25;19.33;;;8.67;;
11054;SDS011;5580;50.106;8.702;2022-09-21T07:08:51;16.53;;;8.00;;
11054;SDS011;5580;50.106;8.702;2022-09-21T07:11:17;18.33;;;8.17;;
11054;SDS011;5580;50.106;8.702;2022-09-21T07:13:43;17.13;;;8.10;;
11054;SDS011;5580;50.106;8.702;2022-09-21T07:16:09;16.70;;;8.70;;
11054;SDS011;5580;50.106;8.702;2022-09-21T07:18:38;19.53;;;8.10;;
11054;SDS011;5580;50.106;8.702;2022-09-21T07:21:05;20.43;;;8.57;;
11054;SDS011;5580;50.106;8.702;2022-09-21T07:23:33;15.20;;;8.23;;
11054;SDS011;5580;50.106;8.702;2022-09-21T07:26:00;20.07;;;7.97;;
11054;SDS011;5580;50.106;8.702;2022-09-21T07:28:28;18.87;;;8.60;;
11054;SDS011;5580;50.106;8.702;2022-09-21T07:30:54;18.17;;;8.63;;
11054;SDS011;5580;50.106;8.702;2022-09-21T07:33:21;15.90;;;8.47;;
11054;SDS011;5580;50.106;8.702;2022-09-21T07:35:51;17.37;;;8.10;;
11054;SDS011;5580;50.106;8.702;2022-09-21T07:38:18;15.93;;;8.73;;
11054;SDS011;5580;50.106;8.702;2022-09-21T07:40:43;15.10;;;8.57;;
11054;SDS011;5580;50.106;8.702;2022-09-21T07:43:09;24.37;;;9.17;;
11054;SDS011;5580;50.106;8.702;2022-09-21T07:45:35;16.80;;;8.67;;
11054;SDS011;5580;50.106;8.702;2022-09-21T07:48:02;18.20;;;9.37;;
11054;SDS011;5580;50.106;8.702;2022-09-21T07:50:28;19.10;;;8.67;;
11054;SDS011;5580;50.106;8.702;2022-09-21T07:52:53;19.70;;;9.03;;
11054;SDS011;5580;50.106;8.702;2022-09-21T07:55:19;21.47;;;9.67;;
11054;SDS011;5580;50.106;8.702;2022-09-21T07:57:45;23.67;;;9.40;;
11054;SDS011;5580;50.106;8.702;2022-09-21T08:00:52;15.87;;;8.77;;
11054;SDS011;5580;50.106;8.702;2022-09-21T08:03:18;18.63;;;9.23;;
11054;SDS011;5580;50.106;8.702;2022-09-21T08:05:44;19.83;;;9.43;;
11054;SDS011;5580;50.106;8.702;2022-09-21T08:08:09;27.13;;;10.07;;
11054;SDS011;5580;50.106;8.702;2022-09-21T08:10:35;19.83;;;9.20;;
11054;SDS011;5580;50.106;8.702;2022-09-21T08:13:01;18.83;;;8.97;;
11054;SDS011;5580;50.106;8.702;2022-09-21T08:15:27;21.77;;;8.73;;
11054;SDS011;5580;50.106;8.702;2022-09-21T08:17:52;22.20;;;9.50;;
11054;SDS011;5580;50.106;8.702;2022-09-21T08:20:19;16.17;;;8.17;;
11054;SDS011;5580;50.106;8.702;2022-09-21T08:22:45;18.13;;;8.50;;
11054;SDS011;5580;50.106;8.702;2022-09-21T08:25:11;18.50;;;9.43;;
11054;SDS011;5580;50.106;8.702;2022-09-21T08:27:37;16.63;;;8.80;;
11054;SDS011;5580;50.106;8.702;2022-09-21T08:30:04;14.83;;;8.43;;
11054;SDS011;5580;50.106;8.702;2022-09-21T08:32:31;18.60;;;8.63;;
11054;SDS011;5580;50.106;8.702;2022-09-21T08:34:57;16.13;;;8.43;;
11054;SDS011;5580;50.106;8.702;2022-09-21T08:37:22;16.23;;;8.90;;
11054;SDS011;5580;50.106;8.702;2022-09-21T08:39:48;17.73;;;8.27;;
11054;SDS011;5580;50.106;8.702;2022-09-21T08:45:13;13.37;;;7.57;;
11054;SDS011;5580;50.106;8.702;2022-09-21T08:47:43;15.77;;;7.83;;
11054;SDS011;5580;50.106;8.702;2022-09-21T08:50:22;13.30;;;7.37;;
11054;SDS011;5580;50.106;8.702;2022-09-21T08:53:00;12.87;;;7.27;;
11054;SDS011;5580;50.106;8.702;2022-09-21T08:55:30;14.07;;;7.20;;
11054;SDS011;5580;50.106;8.702;2022-09-21T08:57:57;14.80;;;7.03;;
11054;SDS011;5580;50.106;8.702;2022-09-21T09:00:25;11.07;;;6.97;;
11054;SDS011;5580;50.106;8.702;2022-09-21T09:03:15;16.57;;;7.00;;
11054;SDS011;5580;50.106;8.702;2022-09-21T09:05:54;14.47;;;6.50;;
11054;SDS011;5580;50.106;8.702;2022-09-21T09:16:35;12.00;;;5.97;;
11054;SDS011;5580;50.106;8.702;2022-09-21T09:21:48;11.53;;;4.97;;
11054;SDS011;5580;50.106;8.702;2022-09-21T09:32:38;8.67;;;5.27;;
11054;SDS011;5580;50.106;8.702;2022-09-21T09:35:21;8.50;;;4.97;;
11054;SDS011;5580;50.106;8.702;2022-09-21T09:38:50;13.70;;;4.70;;
11054;SDS011;5580;50.106;8.702;2022-09-21T09:41:03;12.80;;;4.87;;
11054;SDS011;5580;50.106;8.702;2022-09-21T09:43:42;10.37;;;4.70;;
11054;SDS011;5580;50.106;8.702;2022-09-21T09:52:14;10.53;;;4.40;;
11054;SDS011;5580;50.106;8.702;2022-09-21T09:54:40;10.63;;;3.90;;
11054;SDS011;5580;50.106;8.702;2022-09-21T09:57:07;11.83;;;4.50;;
11054;SDS011;5580;50.106;8.702;2022-09-21T09:59:38;6.27;;;3.70;;
11054;SDS011;5580;50.106;8.702;2022-09-21T10:02:22;5.80;;;4.03;;
11054;SDS011;5580;50.106;8.702;2022-09-21T10:04:56;7.50;;;3.90;;
11054;SDS011;5580;50.106;8.702;2022-09-21T10:07:39;6.93;;;3.90;;
11054;SDS011;5580;50.106;8.702;2022-09-21T10:12:47;10.10;;;4.00;;
11054;SDS011;5580;50.106;8.702;2022-09-21T10:15:15;8.83;;;3.50;;
11054;SDS011;5580;50.106;8.702;2022-09-21T10:17:43;6.97;;;3.20;;
11054;SDS011;5580;50.106;8.702;2022-09-21T10:20:17;5.67;;;3.07;;
11054;SDS011;5580;50.106;8.702;2022-09-21T10:22:45;5.80;;;3.17;;
11054;SDS011;5580;50.106;8.702;2022-09-21T10:25:16;5.73;;;2.80;;
11054;SDS011;5580;50.106;8.702;2022-09-21T10:27:45;7.30;;;3.50;;
11054;SDS011;5580;50.106;8.702;2022-09-21T10:32:54;6.77;;;3.77;;
11054;SDS011;5580;50.106;8.702;2022-09-21T10:35:21;8.57;;;3.80;;
11054;SDS011;5580;50.106;8.702;2022-09-21T10:37:47;8.17;;;3.90;;
11054;SDS011;5580;50.106;8.702;2022-09-21T10:40:32;10.57;;;4.20;;
11054;SDS011;5580;50.106;8.702;2022-09-21T10:43:01;6.53;;;3.67;;
11054;SDS011;5580;50.106;8.702;2022-09-21T10:45:28;5.20;;;3.00;;
11054;SDS011;5580;50.106;8.702;2022-09-21T10:48:06;7.43;;;3.27;;
11054;SDS011;5580;50.106;8.702;2022-09-21T10:50:44;6.83;;;3.40;;
11054;SDS011;5580;50.106;8.702;2022-09-21T10:53:26;4.03;;;2.57;;
11054;SDS011;5580;50.106;8.702;2022-09-21T10:58:36;5.90;;;2.63;;
11054;SDS011;5580;50.106;8.702;2022-09-21T11:01:20;6.33;;;2.63;;
11054;SDS011;5580;50.106;8.702;2022-09-21T11:06:53;6.63;;;2.47;;
11054;SDS011;5580;50.106;8.702;2022-09-21T11:12:35;4.50;;;2.73;;
11054;SDS011;5580;50.106;8.702;2022-09-21T11:17:48;6.23;;;3.00;;
11054;SDS011;5580;50.106;8.702;2022-09-21T11:20:51;5.60;;;2.80;;
11054;SDS011;5580;50.106;8.702;2022-09-21T11:23:22;5.47;;;2.93;;
11054;SDS011;5580;50.106;8.702;2022-09-21T11:26:09;5.23;;;2.63;;
11054;SDS011;5580;50.106;8.702;2022-09-21T11:28:38;5.37;;;2.80;;
11054;SDS011;5580;50.106;8.702;2022-09-21T11:39:06;6.33;;;2.40;;
11054;SDS011;5580;50.106;8.702;2022-09-21T11:49:52;6.60;;;2.90;;
11054;SDS011;5580;50.106;8.702;2022-09-21T11:58:15;2.67;;;2.23;;
11054;SDS011;5580;50.106;8.702;2022-09-21T12:12:12;4.10;;;2.43;;
11054;SDS011;5580;50.106;8.702;2022-09-21T12:15:32;4.07;;;2.30;;
11054;SDS011;5580;50.106;8.702;2022-09-21T12:17:59;5.10;;;2.50;;
11054;SDS011;5580;50.106;8.702;2022-09-21T12:23:27;5.63;;;2.60;;
11054;SDS011;5580;50.106;8.702;2022-09-21T12:26:02;4.67;;;2.30;;
11054;SDS011;5580;50.106;8.702;2022-09-21T12:28:31;8.20;;;2.70;;
11054;SDS011;5580;50.106;8.702;2022-09-21T12:31:08;4.73;;;2.20;;
11054;SDS011;5580;50.106;8.702;2022-09-21T12:33:50;3.60;;;1.93;;
11054;SDS011;5580;50.106;8.702;2022-09-21T12:36:36;3.63;;;1.43;;
11054;SDS011;5580;50.106;8.702;2022-09-21T12:39:12;6.33;;;2.63;;
11054;SDS011;5580;50.106;8.702;2022-09-21T12:41:56;3.10;;;2.13;;
11054;SDS011;5580;50.106;8.702;2022-09-21T12:44:41;5.77;;;2.03;;
11054;SDS011;5580;50.106;8.702;2022-09-21T12:48:05;9.53;;;2.83;;
11054;SDS011;5580;50.106;8.702;2022-09-21T12:52:51;3.17;;;1.80;;
11054;SDS011;5580;50.106;8.702;2022-09-21T12:55:30;3.70;;;1.93;;
11054;SDS011;5580;50.106;8.702;2022-09-21T13:00:36;2.53;;;1.63;;
11054;SDS011;5580;50.106;8.702;2022-09-21T13:03:16;3.80;;;1.97;;
11054;SDS011;5580;50.106;8.702;2022-09-21T13:08:34;3.20;;;1.77;;
11054;SDS011;5580;50.106;8.702;2022-09-21T13:11:10;4.23;;;1.87;;
11054;SDS011;5580;50.106;8.702;2022-09-21T13:16:28;1.87;;;1.77;;
11054;SDS011;5580;50.106;8.702;2022-09-21T13:21:37;2.40;;;1.70;;
11054;SDS011;5580;50.106;8.702;2022-09-21T13:24:04;3.87;;;1.80;;
11054;SDS011;5580;50.106;8.702;2022-09-21T13:26:41;3.47;;;2.10;;
11054;SDS011;5580;50.106;8.702;2022-09-21T13:31:59;2.73;;;1.80;;
11054;SDS011;5580;50.106;8.702;2022-09-21T13:34:31;4.10;;;1.70;;
11054;SDS011;5580;50.106;8.702;2022-09-21T13:39:35;4.13;;;2.03;;
11054;SDS011;5580;50.106;8.702;2022-09-21T13:47:33;2.97;;;1.97;;
11054;SDS011;5580;50.106;8.702;2022-09-21T13:53:07;1.60;;;1.47;;
11054;SDS011;5580;50.106;8.702;2022-09-21T13:55:47;4.87;;;2.30;;
11054;SDS011;5580;50.106;8.702;2022-09-21T13:58:23;4.13;;;2.03;;
11054;SDS011;5580;50.106;8.702;2022-09-21T14:00:52;7.00;;;2.20;;
11054;SDS011;5580;50.106;8.702;2022-09-21T14:03:23;5.80;;;2.77;;
11054;SDS011;5580;50.106;8.702;2022-09-21T14:08:44;4.43;;;2.50;;
11054;SDS011;5580;50.106;8.702;2022-09-21T14:14:00;3.23;;;2.50;;
11054;SDS011;5580;50.106;8.702;2022-09-21T14:16:54;4.07;;;2.90;;
11054;SDS011;5580;50.106;8.702;2022-09-21T14:24:34;2.63;;;2.10;;
11054;SDS011;5580;50.106;8.702;2022-09-21T14:30:04;3.03;;;1.97;;
11054;SDS011;5580;50.106;8.702;2022-09-21T14:32:42;2.53;;;2.00;;
11054;SDS011;5580;50.106;8.702;2022-09-21T14:35:31;3.63;;;2.20;;
11054;SDS011;5580;50.106;8.702;2022-09-21T14:38:02;3.77;;;2.00;;
11054;SDS011;5580;50.106;8.702;2022-09-21T14:40:35;3.63;;;2.20;;
11054;SDS011;5580;50.106;8.702;2022-09-21T14:43:07;2.93;;;2.20;;
11054;SDS011;5580;50.106;8.702;2022-09-21T14:45:58;3.77;;;2.17;;
11054;SDS011;5580;50.106;8.702;2022-09-21T14:48:44;5.73;;;2.20;;
11054;SDS011;5580;50.106;8.702;2022-09-21T14:57:02;2.63;;;1.70;;
11054;SDS011;5580;50.106;8.702;2022-09-21T15:02:38;2.13;;;1.63;;
11054;SDS011;5580;50.106;8.702;2022-09-21T15:05:11;2.10;;;2.00;;
11054;SDS011;5580;50.106;8.702;2022-09-21T15:10:52;2.43;;;1.80;;
11054;SDS011;5580;50.106;8.702;2022-09-21T15:18:46;3.30;;;1.53;;
11054;SDS011;5580;50.106;8.702;2022-09-21T15:21:22;2.87;;;2.23;;
11054;SDS011;5580;50.106;8.702;2022-09-21T15:23:50;2.13;;;1.67;;
11054;SDS011;5580;50.106;8.702;2022-09-21T15:26:26;5.20;;;2.30;;
11054;SDS011;5580;50.106;8.702;2022-09-21T15:28:58;2.80;;;2.10;;
11054;SDS011;5580;50.106;8.702;2022-09-21T15:31:34;3.87;;;1.90;;
11054;SDS011;5580;50.106;8.702;2022-09-21T15:34:05;3.53;;;1.93;;
11054;SDS011;5580;50.106;8.702;2022-09-21T15:36:34;3.03;;;2.17;;
11054;SDS011;5580;50.106;8.702;2022-09-21T15:39:02;2.07;;;1.70;;
11054;SDS011;5580;50.106;8.702;2022-09-21T15:42:28;3.80;;;2.00;;
11054;SDS011;5580;50.106;8.702;2022-09-21T15:44:36;2.40;;;1.80;;
11054;SDS011;5580;50.106;8.702;2022-09-21T15:47:05;5.17;;;2.03;;
11054;SDS011;5580;50.106;8.702;2022-09-21T15:49:36;5.43;;;2.33;;
11054;SDS011;5580;50.106;8.702;2022-09-21T15:54:55;3.57;;;2.30;;
11054;SDS011;5580;50.106;8.702;2022-09-21T15:57:34;3.90;;;2.43;;
11054;SDS011;5580;50.106;8.702;2022-09-21T16:00:05;3.63;;;2.00;;
11054;SDS011;5580;50.106;8.702;2022-09-21T16:03:05;2.53;;;2.07;;
11054;SDS011;5580;50.106;8.702;2022-09-21T16:05:31;2.37;;;1.70;;
11054;SDS011;5580;50.106;8.702;2022-09-21T16:08:09;2.53;;;1.87;;
11054;SDS011;5580;50.106;8.702;2022-09-21T16:10:50;1.83;;;1.57;;
11054;SDS011;5580;50.106;8.702;2022-09-21T16:16:12;4.93;;;1.60;;
11054;SDS011;5580;50.106;8.702;2022-09-21T16:18:52;3.73;;;1.87;;
11054;SDS011;5580;50.106;8.702;2022-09-21T16:23:48;1.63;;;1.53;;
11054;SDS011;5580;50.106;8.702;2022-09-21T16:26:18;1.70;;;1.60;;
11054;SDS011;5580;50.106;8.702;2022-09-21T16:28:46;3.07;;;2.73;;
11054;SDS011;5580;50.106;8.702;2022-09-21T16:31:31;3.90;;;1.50;;
11054;SDS011;5580;50.106;8.702;2022-09-21T16:36:57;4.30;;;2.33;;
11054;SDS011;5580;50.106;8.702;2022-09-21T16:39:23;4.90;;;2.30;;
11054;SDS011;5580;50.106;8.702;2022-09-21T16:41:53;6.20;;;2.40;;
11054;SDS011;5580;50.106;8.702;2022-09-21T16:44:24;5.80;;;2.30;;
11054;SDS011;5580;50.106;8.702;2022-09-21T16:46:58;3.03;;;2.00;;
11054;SDS011;5580;50.106;8.702;2022-09-21T16:49:27;5.97;;;2.30;;
11054;SDS011;5580;50.106;8.702;2022-09-21T16:51:57;2.40;;;2.03;;
11054;SDS011;5580;50.106;8.702;2022-09-21T16:54:23;3.93;;;2.40;;
11054;SDS011;5580;50.106;8.702;2022-09-21T16:56:52;3.43;;;2.10;;
11054;SDS011;5580;50.106;8.702;2022-09-21T16:59:23;4.27;;;2.80;;
11054;SDS011;5580;50.106;8.702;2022-09-21T17:01:49;4.77;;;2.57;;
11054;SDS011;5580;50.106;8.702;2022-09-21T17:04:23;4.27;;;2.53;;
11054;SDS011;5580;50.106;8.702;2022-09-21T17:06:51;3.60;;;2.17;;
11054;SDS011;5580;50.106;8.702;2022-09-21T17:09:19;2.57;;;2.37;;
11054;SDS011;5580;50.106;8.702;2022-09-21T17:11:47;7.33;;;2.67;;
11054;SDS011;5580;50.106;8.702;2022-09-21T17:14:15;4.93;;;2.30;;
11054;SDS011;5580;50.106;8.702;2022-09-21T17:16:42;5.27;;;2.33;;
11054;SDS011;5580;50.106;8.702;2022-09-21T17:19:10;3.07;;;2.40;;
11054;SDS011;5580;50.106;8.702;2022-09-21T17:21:35;7.43;;;2.87;;
11054;SDS011;5580;50.106;8.702;2022-09-21T17:24:01;3.50;;;2.40;;
11054;SDS011;5580;50.106;8.702;2022-09-21T17:26:27;4.23;;;3.00;;
11054;SDS011;5580;50.106;8.702;2022-09-21T17:28:53;4.13;;;2.30;;
11054;SDS011;5580;50.106;8.702;2022-09-21T17:31:19;4.93;;;2.87;;
11054;SDS011;5580;50.106;8.702;2022-09-21T17:33:47;5.50;;;2.83;;
11054;SDS011;5580;50.106;8.702;2022-09-21T17:36:15;4.00;;;2.67;;
11054;SDS011;5580;50.106;8.702;2022-09-21T17:38:42;4.03;;;2.57;;
11054;SDS011;5580;50.106;8.702;2022-09-21T17:41:26;4.73;;;2.57;;
11054;SDS011;5580;50.106;8.702;2022-09-21T17:44:02;7.83;;;3.00;;
11054;SDS011;5580;50.106;8.702;2022-09-21T17:47:22;10.10;;;3.70;;
11054;SDS011;5580;50.106;8.702;2022-09-21T17:49:29;6.97;;;3.40;;
11054;SDS011;5580;50.106;8.702;2022-09-21T17:51:55;11.73;;;5.20;;
11054;SDS011;5580;50.106;8.702;2022-09-21T17:54:39;11.23;;;5.70;;
11054;SDS011;5580;50.106;8.702;2022-09-21T17:57:06;9.37;;;5.27;;
11054;SDS011;5580;50.106;8.702;2022-09-21T18:00:07;11.00;;;6.07;;
11054;SDS011;5580;50.106;8.702;2022-09-21T18:02:47;15.93;;;7.73;;
11054;SDS011;5580;50.106;8.702;2022-09-21T18:05:18;10.90;;;6.10;;
11054;SDS011;5580;50.106;8.702;2022-09-21T18:07:52;10.10;;;5.60;;
11054;SDS011;5580;50.106;8.702;2022-09-21T18:10:19;10.77;;;5.53;;
11054;SDS011;5580;50.106;8.702;2022-09-21T18:26:08;14.43;;;6.43;;
11054;SDS011;5580;50.106;8.702;2022-09-21T18:28:41;11.00;;;5.97;;
11054;SDS011;5580;50.106;8.702;2022-09-21T18:31:21;9.80;;;5.50;;
11054;SDS011;5580;50.106;8.702;2022-09-21T18:39:31;8.63;;;5.27;;
11054;SDS011;5580;50.106;8.702;2022-09-21T18:45:08;10.13;;;6.00;;
11054;SDS011;5580;50.106;8.702;2022-09-21T18:55:35;9.57;;;6.27;;